sensor_id;sensor_type;location;lat;lon;timestamp;pressure;altitude;pressure_sealevel;temperature;humidity
70338;BME280;57757;53.198;19.646;2023-04-09T00:00:33;101017.72;;;9.35;47.83
70338;BME280;57757;53.198;19.646;2023-04-09T00:03:23;101014.94;;;9.33;47.94
70338;BME280;57757;53.198;19.646;2023-04-09T00:05:51;101014.07;;;9.34;47.93
70338;BME280;57757;53.198;19.646;2023-04-09T00:08:18;101013.73;;;9.34;47.97
70338;BME280;57757;53.198;19.646;2023-04-09T00:10:46;101009.20;;;9.34;48.12
70338;BME280;57757;53.198;19.646;2023-04-09T00:13:14;101006.44;;;9.34;48.28
70338;BME280;57757;53.198;19.646;2023-04-09T00:15:49;101005.91;;;9.33;48.22
70338;BME280;57757;53.198;19.646;2023-04-09T00:18:17;101008.16;;;9.33;48.28
70338;BME280;57757;53.198;19.646;2023-04-09T00:20:45;101005.56;;;9.33;48.43
70338;BME280;57757;53.198;19.646;2023-04-09T00:23:15;101005.91;;;9.34;48.42
70338;BME280;57757;53.198;19.646;2023-04-09T00:25:45;101002.61;;;9.34;48.52
70338;BME280;57757;53.198;19.646;2023-04-09T00:28:13;101001.21;;;9.35;48.59
70338;BME280;57757;53.198;19.646;2023-04-09T00:30:43;101000.51;;;9.36;48.53
70338;BME280;57757;53.198;19.646;2023-04-09T00:33:10;101001.03;;;9.36;48.62
70338;BME280;57757;53.198;19.646;2023-04-09T00:35:38;101001.55;;;9.38;48.85
70338;BME280;57757;53.198;19.646;2023-04-09T00:38:05;101001.38;;;9.38;48.84
70338;BME280;57757;53.198;19.646;2023-04-09T00:40:33;101003.27;;;9.39;48.84
70338;BME280;57757;53.198;19.646;2023-04-09T00:43:00;100998.06;;;9.39;48.92
70338;BME280;57757;53.198;19.646;2023-04-09T00:45:28;101000.33;;;9.40;48.79
70338;BME280;57757;53.198;19.646;2023-04-09T00:47:56;100998.92;;;9.40;48.90
70338;BME280;57757;53.198;19.646;2023-04-09T00:50:24;100996.84;;;9.40;49.04
70338;BME280;57757;53.198;19.646;2023-04-09T00:52:51;100991.80;;;9.41;49.14
70338;BME280;57757;53.198;19.646;2023-04-09T00:55:20;100997.02;;;9.41;49.19
70338;BME280;57757;53.198;19.646;2023-04-09T00:57:48;100991.80;;;9.40;49.07
70338;BME280;57757;53.198;19.646;2023-04-09T01:00:16;100986.94;;;9.40;49.20
70338;BME280;57757;53.198;19.646;2023-04-09T01:02:44;100980.34;;;9.40;49.20
70338;BME280;57757;53.198;19.646;2023-04-09T01:05:11;100978.27;;;9.39;49.38
70338;BME280;57757;53.198;19.646;2023-04-09T01:10:47;100974.30;;;9.37;49.42
70338;BME280;57757;53.198;19.646;2023-04-09T01:15:58;100973.63;;;9.34;49.61
70338;BME280;57757;53.198;19.646;2023-04-09T01:23:36;100974.35;;;9.30;49.87
70338;BME280;57757;53.198;19.646;2023-04-09T01:26:16;100972.08;;;9.29;49.89
70338;BME280;57757;53.198;19.646;2023-04-09T01:28:48;100969.48;;;9.28;49.92
70338;BME280;57757;53.198;19.646;2023-04-09T01:31:22;100971.05;;;9.27;49.96
70338;BME280;57757;53.198;19.646;2023-04-09T01:33:51;100972.45;;;9.26;49.88
70338;BME280;57757;53.198;19.646;2023-04-09T01:36:19;100974.89;;;9.25;49.99
70338;BME280;57757;53.198;19.646;2023-04-09T01:38:47;100977.51;;;9.23;50.07
70338;BME280;57757;53.198;19.646;2023-04-09T01:41:20;100980.11;;;9.23;50.14
70338;BME280;57757;53.198;19.646;2023-04-09T01:43:49;100981.86;;;9.21;50.13
70338;BME280;57757;53.198;19.646;2023-04-09T01:46:18;100981.35;;;9.17;50.15
70338;BME280;57757;53.198;19.646;2023-04-09T01:48:47;100982.06;;;9.15;50.21
70338;BME280;57757;53.198;19.646;2023-04-09T01:51:16;100980.50;;;9.12;50.38
70338;BME280;57757;53.198;19.646;2023-04-09T01:53:48;100978.26;;;9.10;50.48
70338;BME280;57757;53.198;19.646;2023-04-09T01:56:16;100982.42;;;9.09;50.47
70338;BME280;57757;53.198;19.646;2023-04-09T01:58:43;100980.52;;;9.09;50.53
70338;BME280;57757;53.198;19.646;2023-04-09T02:01:30;100979.47;;;9.08;50.59
70338;BME280;57757;53.198;19.646;2023-04-09T02:04:02;100981.05;;;9.05;50.59
70338;BME280;57757;53.198;19.646;2023-04-09T02:06:38;100982.64;;;9.03;50.74
70338;BME280;57757;53.198;19.646;2023-04-09T02:09:08;100983.85;;;9.03;50.80
70338;BME280;57757;53.198;19.646;2023-04-09T02:11:39;100982.80;;;9.01;50.93
70338;BME280;57757;53.198;19.646;2023-04-09T02:14:08;100984.73;;;9.01;50.98
70338;BME280;57757;53.198;19.646;2023-04-09T02:16:39;100984.90;;;9.01;50.90
70338;BME280;57757;53.198;19.646;2023-04-09T02:19:07;100984.90;;;8.99;51.02
70338;BME280;57757;53.198;19.646;2023-04-09T02:21:34;100981.59;;;8.97;51.07
70338;BME280;57757;53.198;19.646;2023-04-09T02:24:02;100978.50;;;8.96;51.23
70338;BME280;57757;53.198;19.646;2023-04-09T02:26:30;100977.47;;;8.96;51.14
70338;BME280;57757;53.198;19.646;2023-04-09T02:28:57;100979.37;;;8.95;51.24
70338;BME280;57757;53.198;19.646;2023-04-09T02:31:25;100979.02;;;8.92;51.23
70338;BME280;57757;53.198;19.646;2023-04-09T02:33:53;100973.66;;;8.89;51.22
70338;BME280;57757;53.198;19.646;2023-04-09T02:36:20;100974.89;;;8.87;51.36
70338;BME280;57757;53.198;19.646;2023-04-09T02:38:48;100971.79;;;8.84;51.29
70338;BME280;57757;53.198;19.646;2023-04-09T02:41:15;100974.55;;;8.84;51.50
70338;BME280;57757;53.198;19.646;2023-04-09T02:43:43;100971.61;;;8.83;51.57
70338;BME280;57757;53.198;19.646;2023-04-09T02:46:11;100970.56;;;8.83;51.50
70338;BME280;57757;53.198;19.646;2023-04-09T02:48:38;100970.23;;;8.82;51.55
70338;BME280;57757;53.198;19.646;2023-04-09T02:51:05;100967.97;;;8.82;51.57
70338;BME280;57757;53.198;19.646;2023-04-09T02:53:33;100968.84;;;8.82;51.62
70338;BME280;57757;53.198;19.646;2023-04-09T02:56:01;100969.02;;;8.80;51.72
70338;BME280;57757;53.198;19.646;2023-04-09T02:58:28;100971.11;;;8.78;51.71
70338;BME280;57757;53.198;19.646;2023-04-09T03:00:56;100967.48;;;8.77;51.81
70338;BME280;57757;53.198;19.646;2023-04-09T03:03:23;100971.63;;;8.76;51.91
70338;BME280;57757;53.198;19.646;2023-04-09T03:05:51;100963.84;;;8.76;52.02
70338;BME280;57757;53.198;19.646;2023-04-09T03:08:19;100966.78;;;8.75;51.94
70338;BME280;57757;53.198;19.646;2023-04-09T03:10:46;100965.93;;;8.72;51.97
70338;BME280;57757;53.198;19.646;2023-04-09T03:13:14;100969.58;;;8.70;51.97
70338;BME280;57757;53.198;19.646;2023-04-09T03:15:42;100969.76;;;8.68;52.18
70338;BME280;57757;53.198;19.646;2023-04-09T03:18:09;100970.98;;;8.67;52.15
70338;BME280;57757;53.198;19.646;2023-04-09T03:20:37;100969.95;;;8.65;52.23
70338;BME280;57757;53.198;19.646;2023-04-09T03:23:07;100966.81;;;8.63;52.18
70338;BME280;57757;53.198;19.646;2023-04-09T03:25:34;100969.96;;;8.62;52.30
70338;BME280;57757;53.198;19.646;2023-04-09T03:28:02;100969.44;;;8.60;52.49
70338;BME280;57757;53.198;19.646;2023-04-09T03:30:29;100969.80;;;8.56;52.26
70338;BME280;57757;53.198;19.646;2023-04-09T03:32:57;100974.15;;;8.51;52.49
70338;BME280;57757;53.198;19.646;2023-04-09T03:35:28;100974.15;;;8.47;52.53
70338;BME280;57757;53.198;19.646;2023-04-09T03:37:55;100974.69;;;8.42;52.46
70338;BME280;57757;53.198;19.646;2023-04-09T03:40:23;100975.55;;;8.40;52.65
70338;BME280;57757;53.198;19.646;2023-04-09T03:42:50;100978.50;;;8.39;52.70
70338;BME280;57757;53.198;19.646;2023-04-09T03:45:19;100977.98;;;8.37;52.70
70338;BME280;57757;53.198;19.646;2023-04-09T03:47:47;100972.79;;;8.36;52.81
70338;BME280;57757;53.198;19.646;2023-04-09T03:50:15;100976.61;;;8.34;52.76
70338;BME280;57757;53.198;19.646;2023-04-09T03:52:42;100975.04;;;8.32;52.81
70338;BME280;57757;53.198;19.646;2023-04-09T03:55:10;100971.76;;;8.30;52.94
70338;BME280;57757;53.198;19.646;2023-04-09T03:57:37;100972.27;;;8.27;53.01
70338;BME280;57757;53.198;19.646;2023-04-09T04:00:06;100965.67;;;8.26;53.10
70338;BME280;57757;53.198;19.646;2023-04-09T04:02:34;100967.23;;;8.24;53.08
70338;BME280;57757;53.198;19.646;2023-04-09T04:05:02;100967.58;;;8.20;52.98
70338;BME280;57757;53.198;19.646;2023-04-09T04:07:31;100970.00;;;8.16;53.16
70338;BME280;57757;53.198;19.646;2023-04-09T04:09:59;100974.86;;;8.14;53.20
70338;BME280;57757;53.198;19.646;2023-04-09T04:12:30;100979.89;;;8.11;53.16
70338;BME280;57757;53.198;19.646;2023-04-09T04:14:58;100982.65;;;8.09;53.25
70338;BME280;57757;53.198;19.646;2023-04-09T04:17:25;100980.77;;;8.08;53.40
70338;BME280;57757;53.198;19.646;2023-04-09T04:19:53;100977.30;;;8.07;53.36
70338;BME280;57757;53.198;19.646;2023-04-09T04:22:20;100978.15;;;8.05;53.36
70338;BME280;57757;53.198;19.646;2023-04-09T04:24:50;100980.77;;;8.04;53.43
70338;BME280;57757;53.198;19.646;2023-04-09T04:27:17;100977.30;;;8.03;53.58
70338;BME280;57757;53.198;19.646;2023-04-09T04:29:45;100979.02;;;8.02;53.69
70338;BME280;57757;53.198;19.646;2023-04-09T04:32:12;100978.70;;;8.00;53.67
70338;BME280;57757;53.198;19.646;2023-04-09T04:34:40;100980.42;;;7.99;53.58
70338;BME280;57757;53.198;19.646;2023-04-09T04:37:07;100984.05;;;7.96;53.69
70338;BME280;57757;53.198;19.646;2023-04-09T04:39:35;100987.34;;;7.95;53.66
70338;BME280;57757;53.198;19.646;2023-04-09T04:42:02;100991.50;;;7.93;53.73
70338;BME280;57757;53.198;19.646;2023-04-09T04:44:30;100985.95;;;7.89;53.82
70338;BME280;57757;53.198;19.646;2023-04-09T04:46:57;100990.30;;;7.85;53.89
70338;BME280;57757;53.198;19.646;2023-04-09T04:49:25;100992.88;;;7.81;54.01
70338;BME280;57757;53.198;19.646;2023-04-09T04:51:52;100997.39;;;7.78;54.08
70338;BME280;57757;53.198;19.646;2023-04-09T04:54:20;100994.09;;;7.74;54.07
70338;BME280;57757;53.198;19.646;2023-04-09T04:56:48;100997.36;;;7.70;54.20
70338;BME280;57757;53.198;19.646;2023-04-09T04:59:15;100997.71;;;7.68;54.15
70338;BME280;57757;53.198;19.646;2023-04-09T05:01:43;100997.73;;;7.66;54.24
70338;BME280;57757;53.198;19.646;2023-04-09T05:04:10;100998.59;;;7.66;54.46
70338;BME280;57757;53.198;19.646;2023-04-09T05:06:38;100997.88;;;7.64;54.48
70338;BME280;57757;53.198;19.646;2023-04-09T05:09:05;100999.45;;;7.65;54.30
70338;BME280;57757;53.198;19.646;2023-04-09T05:11:33;101006.38;;;7.64;54.67
70338;BME280;57757;53.198;19.646;2023-04-09T05:14:00;101008.27;;;7.65;54.64
70338;BME280;57757;53.198;19.646;2023-04-09T05:16:28;101010.54;;;7.65;54.61
70338;BME280;57757;53.198;19.646;2023-04-09T05:18:58;101008.46;;;7.66;54.70
70338;BME280;57757;53.198;19.646;2023-04-09T05:21:25;101010.52;;;7.64;54.70
70338;BME280;57757;53.198;19.646;2023-04-09T05:23:53;101012.09;;;7.63;54.67
70338;BME280;57757;53.198;19.646;2023-04-09T05:26:23;101016.39;;;7.63;54.85
70338;BME280;57757;53.198;19.646;2023-04-09T05:28:50;101019.34;;;7.63;54.79
70338;BME280;57757;53.198;19.646;2023-04-09T05:31:19;101025.07;;;7.62;54.93
70338;BME280;57757;53.198;19.646;2023-04-09T05:33:47;101027.83;;;7.60;54.90
70338;BME280;57757;53.198;19.646;2023-04-09T05:36:17;101026.79;;;7.60;55.05
70338;BME280;57757;53.198;19.646;2023-04-09T05:38:45;101028.17;;;7.58;54.84
70338;BME280;57757;53.198;19.646;2023-04-09T05:41:13;101030.08;;;7.59;54.89
70338;BME280;57757;53.198;19.646;2023-04-09T05:43:42;101026.63;;;7.61;55.15
70338;BME280;57757;53.198;19.646;2023-04-09T05:46:10;101026.10;;;7.65;54.97
70338;BME280;57757;53.198;19.646;2023-04-09T05:48:37;101029.40;;;7.65;55.19
70338;BME280;57757;53.198;19.646;2023-04-09T05:51:06;101023.00;;;7.67;55.13
70338;BME280;57757;53.198;19.646;2023-04-09T05:53:35;101025.08;;;7.70;55.21
70338;BME280;57757;53.198;19.646;2023-04-09T05:56:12;101020.41;;;7.73;55.28
70338;BME280;57757;53.198;19.646;2023-04-09T05:58:39;101022.32;;;7.73;55.26
70338;BME280;57757;53.198;19.646;2023-04-09T06:01:07;101026.98;;;7.75;55.33
70338;BME280;57757;53.198;19.646;2023-04-09T06:03:35;101028.20;;;7.76;55.40
70338;BME280;57757;53.198;19.646;2023-04-09T06:06:03;101033.58;;;7.80;55.31
70338;BME280;57757;53.198;19.646;2023-04-09T06:08:30;101032.89;;;7.81;55.45
70338;BME280;57757;53.198;19.646;2023-04-09T06:10:58;101039.13;;;7.84;55.47
70338;BME280;57757;53.198;19.646;2023-04-09T06:13:26;101040.33;;;7.86;55.57
70338;BME280;57757;53.198;19.646;2023-04-09T06:15:53;101040.69;;;7.90;55.53
70338;BME280;57757;53.198;19.646;2023-04-09T06:18:21;101040.36;;;7.93;55.66
70338;BME280;57757;53.198;19.646;2023-04-09T06:20:49;101043.11;;;7.96;55.56
70338;BME280;57757;53.198;19.646;2023-04-09T06:23:16;101042.25;;;8.00;55.67
70338;BME280;57757;53.198;19.646;2023-04-09T06:25:44;101043.46;;;8.02;55.76
70338;BME280;57757;53.198;19.646;2023-04-09T06:28:12;101042.77;;;8.06;55.76
70338;BME280;57757;53.198;19.646;2023-04-09T06:30:39;101045.03;;;8.12;55.87
70338;BME280;57757;53.198;19.646;2023-04-09T06:33:07;101043.64;;;8.21;55.89
70338;BME280;57757;53.198;19.646;2023-04-09T06:35:35;101042.11;;;8.29;55.91
70338;BME280;57757;53.198;19.646;2023-04-09T06:38:02;101041.77;;;8.36;55.72
70338;BME280;57757;53.198;19.646;2023-04-09T06:40:31;101045.05;;;8.45;55.81
70338;BME280;57757;53.198;19.646;2023-04-09T06:42:58;101048.34;;;8.52;55.70
70338;BME280;57757;53.198;19.646;2023-04-09T06:45:26;101047.98;;;8.59;55.67
70338;BME280;57757;53.198;19.646;2023-04-09T06:47:54;101050.39;;;8.67;55.61
70338;BME280;57757;53.198;19.646;2023-04-09T06:50:22;101050.54;;;8.74;55.65
70338;BME280;57757;53.198;19.646;2023-04-09T06:52:50;101055.56;;;8.83;55.71
70338;BME280;57757;53.198;19.646;2023-04-09T06:55:18;101055.01;;;8.94;55.78
70338;BME280;57757;53.198;19.646;2023-04-09T06:57:46;101064.35;;;9.05;55.62
70338;BME280;57757;53.198;19.646;2023-04-09T07:00:14;101069.52;;;9.10;55.58
70338;BME280;57757;53.198;19.646;2023-04-09T07:02:42;101072.80;;;9.15;55.65
70338;BME280;57757;53.198;19.646;2023-04-09T07:05:10;101070.02;;;9.21;55.62
70338;BME280;57757;53.198;19.646;2023-04-09T07:07:38;101067.37;;;9.28;55.75
70338;BME280;57757;53.198;19.646;2023-04-09T07:10:06;101067.02;;;9.33;55.62
70338;BME280;57757;53.198;19.646;2023-04-09T07:12:34;101073.59;;;9.36;55.57
70338;BME280;57757;53.198;19.646;2023-04-09T07:15:04;101074.27;;;9.40;55.56
70338;BME280;57757;53.198;19.646;2023-04-09T07:17:33;101075.98;;;9.47;55.63
70338;BME280;57757;53.198;19.646;2023-04-09T07:20:01;101075.96;;;9.51;55.50
70338;BME280;57757;53.198;19.646;2023-04-09T07:22:30;101080.10;;;9.55;55.65
70338;BME280;57757;53.198;19.646;2023-04-09T07:24:57;101078.19;;;9.56;55.58
70338;BME280;57757;53.198;19.646;2023-04-09T07:27:26;101078.17;;;9.58;55.76
70338;BME280;57757;53.198;19.646;2023-04-09T07:29:56;101079.55;;;9.60;55.67
70338;BME280;57757;53.198;19.646;2023-04-09T07:32:25;101077.60;;;9.68;55.94
70338;BME280;57757;53.198;19.646;2023-04-09T07:34:55;101077.56;;;9.75;55.74
70338;BME280;57757;53.198;19.646;2023-04-09T07:37:25;101076.69;;;9.76;55.66
70338;BME280;57757;53.198;19.646;2023-04-09T07:39:53;101078.05;;;9.79;55.68
70338;BME280;57757;53.198;19.646;2023-04-09T07:42:21;101083.41;;;9.83;55.79
70338;BME280;57757;53.198;19.646;2023-04-09T07:44:50;101084.09;;;9.86;55.72
70338;BME280;57757;53.198;19.646;2023-04-09T07:47:18;101086.15;;;9.89;55.75
70338;BME280;57757;53.198;19.646;2023-04-09T07:49:46;101085.77;;;9.95;55.73
70338;BME280;57757;53.198;19.646;2023-04-09T07:52:14;101079.13;;;10.01;55.77
70338;BME280;57757;53.198;19.646;2023-04-09T07:54:41;101074.73;;;10.06;55.75
70338;BME280;57757;53.198;19.646;2023-04-09T07:57:09;101071.76;;;10.13;55.82
70338;BME280;57757;53.198;19.646;2023-04-09T07:59:36;101070.37;;;10.15;55.66
70338;BME280;57757;53.198;19.646;2023-04-09T08:02:04;101072.42;;;10.20;55.79
70338;BME280;57757;53.198;19.646;2023-04-09T08:04:32;101071.52;;;10.23;55.80
70338;BME280;57757;53.198;19.646;2023-04-09T08:07:00;101075.48;;;10.27;55.72
70338;BME280;57757;53.198;19.646;2023-04-09T08:09:27;101075.95;;;10.33;55.80
70338;BME280;57757;53.198;19.646;2023-04-09T08:11:55;101073.48;;;10.37;55.65
70338;BME280;57757;53.198;19.646;2023-04-09T08:14:23;101073.45;;;10.42;55.65
70338;BME280;57757;53.198;19.646;2023-04-09T08:16:51;101076.68;;;10.50;55.84
70338;BME280;57757;53.198;19.646;2023-04-09T08:19:18;101075.95;;;10.54;55.73
70338;BME280;57757;53.198;19.646;2023-04-09T08:21:47;101076.83;;;10.54;55.56
70338;BME280;57757;53.198;19.646;2023-04-09T08:24:15;101076.63;;;10.57;55.60
70338;BME280;57757;53.198;19.646;2023-04-09T08:26:43;101074.68;;;10.59;55.58
70338;BME280;57757;53.198;19.646;2023-04-09T08:29:12;101072.09;;;10.58;55.64
70338;BME280;57757;53.198;19.646;2023-04-09T08:31:40;101078.69;;;10.58;55.82
70338;BME280;57757;53.198;19.646;2023-04-09T08:34:10;101072.45;;;10.57;55.52
70338;BME280;57757;53.198;19.646;2023-04-09T08:36:39;101071.75;;;10.58;55.65
70338;BME280;57757;53.198;19.646;2023-04-09T08:39:07;101068.27;;;10.58;55.58
70338;BME280;57757;53.198;19.646;2023-04-09T08:41:41;101071.73;;;10.59;55.92
70338;BME280;57757;53.198;19.646;2023-04-09T08:44:11;101069.43;;;10.63;55.74
70338;BME280;57757;53.198;19.646;2023-04-09T08:46:40;101069.77;;;10.64;55.71
70338;BME280;57757;53.198;19.646;2023-04-09T08:49:08;101068.55;;;10.64;55.85
70338;BME280;57757;53.198;19.646;2023-04-09T08:51:37;101065.21;;;10.68;55.80
70338;BME280;57757;53.198;19.646;2023-04-09T08:54:05;101065.34;;;10.72;55.85
70338;BME280;57757;53.198;19.646;2023-04-09T08:56:33;101065.44;;;10.80;55.99
70338;BME280;57757;53.198;19.646;2023-04-09T08:59:01;101065.86;;;10.89;56.06
70338;BME280;57757;53.198;19.646;2023-04-09T09:01:30;101070.45;;;10.98;56.10
70338;BME280;57757;53.198;19.646;2023-04-09T09:06:29;101070.55;;;11.05;55.92
70338;BME280;57757;53.198;19.646;2023-04-09T09:11:44;101071.05;;;11.08;55.94
70338;BME280;57757;53.198;19.646;2023-04-09T09:14:14;101081.59;;;11.15;56.01
70338;BME280;57757;53.198;19.646;2023-04-09T09:17:01;101081.38;;;11.18;55.96
70338;BME280;57757;53.198;19.646;2023-04-09T09:19:35;101083.43;;;11.21;56.00
70338;BME280;57757;53.198;19.646;2023-04-09T09:22:05;101083.73;;;11.24;56.15
70338;BME280;57757;53.198;19.646;2023-04-09T09:24:44;101083.02;;;11.27;56.10
70338;BME280;57757;53.198;19.646;2023-04-09T09:27:33;101083.80;;;11.33;56.10
70338;BME280;57757;53.198;19.646;2023-04-09T09:30:05;101082.30;;;11.42;56.20
70338;BME280;57757;53.198;19.646;2023-04-09T09:32:33;101079.59;;;11.49;56.16
70338;BME280;57757;53.198;19.646;2023-04-09T09:35:05;101079.46;;;11.59;56.28
70338;BME280;57757;53.198;19.646;2023-04-09T09:37:33;101081.72;;;11.74;56.38
70338;BME280;57757;53.198;19.646;2023-04-09T09:40:01;101081.70;;;11.89;56.29
70338;BME280;57757;53.198;19.646;2023-04-09T09:42:29;101077.13;;;12.03;56.23
70338;BME280;57757;53.198;19.646;2023-04-09T09:44:57;101076.80;;;12.12;56.19
70338;BME280;57757;53.198;19.646;2023-04-09T09:47:28;101073.63;;;12.25;56.22
70338;BME280;57757;53.198;19.646;2023-04-09T09:49:59;101074.49;;;12.36;56.08
70338;BME280;57757;53.198;19.646;2023-04-09T09:52:26;101072.97;;;12.44;56.12
70338;BME280;57757;53.198;19.646;2023-04-09T09:54:55;101067.62;;;12.51;55.90
70338;BME280;57757;53.198;19.646;2023-04-09T09:57:28;101065.79;;;12.55;55.83
70338;BME280;57757;53.198;19.646;2023-04-09T10:00:01;101067.62;;;12.60;55.84
70338;BME280;57757;53.198;19.646;2023-04-09T10:05:23;101076.47;;;12.73;55.71
70338;BME280;57757;53.198;19.646;2023-04-09T10:07:54;101074.83;;;12.77;55.87
70338;BME280;57757;53.198;19.646;2023-04-09T10:10:24;101066.23;;;12.89;55.96
70338;BME280;57757;53.198;19.646;2023-04-09T10:12:53;101065.80;;;13.02;55.91
70338;BME280;57757;53.198;19.646;2023-04-09T10:15:22;101068.70;;;13.17;55.96
70338;BME280;57757;53.198;19.646;2023-04-09T10:17:50;101063.47;;;13.33;55.83
70338;BME280;57757;53.198;19.646;2023-04-09T10:23:05;101060.71;;;13.63;55.75
70338;BME280;57757;53.198;19.646;2023-04-09T10:25:36;101059.15;;;13.78;55.64
70338;BME280;57757;53.198;19.646;2023-04-09T10:28:14;101047.11;;;13.92;55.51
70338;BME280;57757;53.198;19.646;2023-04-09T10:30:42;101048.56;;;14.04;55.41
70338;BME280;57757;53.198;19.646;2023-04-09T10:33:22;101052.83;;;14.16;55.44
70338;BME280;57757;53.198;19.646;2023-04-09T10:35:55;101050.35;;;14.31;55.42
70338;BME280;57757;53.198;19.646;2023-04-09T10:38:45;101051.58;;;14.46;55.33
70338;BME280;57757;53.198;19.646;2023-04-09T10:43:57;101050.55;;;14.78;55.16
70338;BME280;57757;53.198;19.646;2023-04-09T10:46:29;101048.87;;;14.95;55.18
70338;BME280;57757;53.198;19.646;2023-04-09T10:49:15;101047.16;;;15.18;55.20
70338;BME280;57757;53.198;19.646;2023-04-09T10:51:50;101046.80;;;15.42;55.08
70338;BME280;57757;53.198;19.646;2023-04-09T10:54:36;101047.89;;;15.59;54.84
70338;BME280;57757;53.198;19.646;2023-04-09T10:57:22;101044.37;;;15.77;54.84
70338;BME280;57757;53.198;19.646;2023-04-09T10:59:52;101046.50;;;15.93;54.71
70338;BME280;57757;53.198;19.646;2023-04-09T11:07:26;101041.37;;;16.26;54.21
70338;BME280;57757;53.198;19.646;2023-04-09T11:09:55;101038.30;;;16.29;54.16
70338;BME280;57757;53.198;19.646;2023-04-09T11:12:23;101043.06;;;16.33;54.19
70338;BME280;57757;53.198;19.646;2023-04-09T11:14:50;101038.73;;;16.36;53.93
70338;BME280;57757;53.198;19.646;2023-04-09T11:17:18;101036.64;;;16.36;53.90
70338;BME280;57757;53.198;19.646;2023-04-09T11:19:46;101037.21;;;16.25;53.67
70338;BME280;57757;53.198;19.646;2023-04-09T11:22:14;101044.99;;;16.12;53.68
70338;BME280;57757;53.198;19.646;2023-04-09T11:24:44;101042.95;;;16.04;53.70
70338;BME280;57757;53.198;19.646;2023-04-09T11:27:13;101044.23;;;15.98;53.76
70338;BME280;57757;53.198;19.646;2023-04-09T11:29:40;101043.05;;;15.96;53.88
70338;BME280;57757;53.198;19.646;2023-04-09T11:32:08;101041.05;;;15.94;53.89
70338;BME280;57757;53.198;19.646;2023-04-09T11:34:36;101042.40;;;15.89;53.92
70338;BME280;57757;53.198;19.646;2023-04-09T11:37:04;101044.14;;;15.84;53.76
70338;BME280;57757;53.198;19.646;2023-04-09T11:39:35;101043.70;;;15.70;53.74
70338;BME280;57757;53.198;19.646;2023-04-09T11:42:03;101041.62;;;15.64;53.70
70338;BME280;57757;53.198;19.646;2023-04-09T11:44:31;101047.25;;;15.57;53.77
70338;BME280;57757;53.198;19.646;2023-04-09T11:46:59;101046.83;;;15.48;53.81
70338;BME280;57757;53.198;19.646;2023-04-09T11:49:27;101046.50;;;15.40;53.84
70338;BME280;57757;53.198;19.646;2023-04-09T11:51:54;101046.12;;;15.36;53.82
70338;BME280;57757;53.198;19.646;2023-04-09T11:54:24;101045.74;;;15.30;53.88
70338;BME280;57757;53.198;19.646;2023-04-09T11:56:51;101048.81;;;15.27;54.02
70338;BME280;57757;53.198;19.646;2023-04-09T11:59:22;101049.08;;;15.25;54.09
70338;BME280;57757;53.198;19.646;2023-04-09T12:01:50;101048.44;;;15.22;54.11
70338;BME280;57757;53.198;19.646;2023-04-09T12:04:21;101048.86;;;15.19;54.11
70338;BME280;57757;53.198;19.646;2023-04-09T12:06:49;101046.36;;;15.15;54.16
70338;BME280;57757;53.198;19.646;2023-04-09T12:09:16;101041.23;;;15.11;54.16
70338;BME280;57757;53.198;19.646;2023-04-09T12:11:44;101047.16;;;15.06;54.24
70338;BME280;57757;53.198;19.646;2023-04-09T12:14:16;101047.14;;;15.06;54.28
70338;BME280;57757;53.198;19.646;2023-04-09T12:16:44;101044.33;;;15.07;54.30
70338;BME280;57757;53.198;19.646;2023-04-09T12:19:12;101046.42;;;15.07;54.34
70338;BME280;57757;53.198;19.646;2023-04-09T12:21:44;101042.90;;;15.08;54.42
70338;BME280;57757;53.198;19.646;2023-04-09T12:24:15;101040.40;;;15.10;54.36
70338;BME280;57757;53.198;19.646;2023-04-09T12:26:46;101041.85;;;15.08;54.34
70338;BME280;57757;53.198;19.646;2023-04-09T12:29:16;101043.96;;;14.95;54.13
70338;BME280;57757;53.198;19.646;2023-04-09T12:31:44;101045.11;;;14.85;54.39
70338;BME280;57757;53.198;19.646;2023-04-09T12:34:12;101042.45;;;14.80;54.45
70338;BME280;57757;53.198;19.646;2023-04-09T12:36:40;101044.98;;;14.77;54.63
70338;BME280;57757;53.198;19.646;2023-04-09T12:39:08;101042.23;;;14.81;54.89
70338;BME280;57757;53.198;19.646;2023-04-09T12:41:36;101041.63;;;14.85;54.89
70338;BME280;57757;53.198;19.646;2023-04-09T12:44:04;101043.45;;;14.89;54.84
70338;BME280;57757;53.198;19.646;2023-04-09T12:46:34;101036.48;;;14.87;54.87
70338;BME280;57757;53.198;19.646;2023-04-09T12:49:02;101035.11;;;14.86;54.99
70338;BME280;57757;53.198;19.646;2023-04-09T12:51:30;101037.41;;;14.85;54.95
70338;BME280;57757;53.198;19.646;2023-04-09T12:53:58;101034.46;;;14.83;54.95
70338;BME280;57757;53.198;19.646;2023-04-09T12:56:25;101031.05;;;14.80;55.00
70338;BME280;57757;53.198;19.646;2023-04-09T12:58:56;101030.27;;;14.77;55.10
70338;BME280;57757;53.198;19.646;2023-04-09T13:01:23;101028.61;;;14.74;55.19
70338;BME280;57757;53.198;19.646;2023-04-09T13:03:51;101032.09;;;14.68;55.19
70338;BME280;57757;53.198;19.646;2023-04-09T13:06:20;101031.35;;;14.63;55.13
70338;BME280;57757;53.198;19.646;2023-04-09T13:08:50;101029.06;;;14.57;55.32
70338;BME280;57757;53.198;19.646;2023-04-09T13:11:18;101027.29;;;14.52;55.26
70338;BME280;57757;53.198;19.646;2023-04-09T13:13:45;101025.30;;;14.47;55.37
70338;BME280;57757;53.198;19.646;2023-04-09T13:16:13;101025.73;;;14.44;55.47
70338;BME280;57757;53.198;19.646;2023-04-09T13:18:41;101024.83;;;14.45;55.58
70338;BME280;57757;53.198;19.646;2023-04-09T13:21:08;101025.04;;;14.50;55.60
70338;BME280;57757;53.198;19.646;2023-04-09T13:23:36;101021.52;;;14.58;55.70